createdAt,value
2022-11-28T00:00:40.776Z,16
2022-11-28T00:01:40.789Z,14
2022-11-28T00:02:40.789Z,16
2022-11-28T00:03:40.789Z,12
2022-11-28T00:04:40.789Z,11
2022-11-28T00:05:40.790Z,12
2022-11-28T00:06:40.790Z,13
2022-11-28T00:07:40.789Z,13
2022-11-28T00:08:40.777Z,12
2022-11-28T00:09:40.790Z,14
2022-11-28T00:10:40.790Z,12
2022-11-28T00:11:40.777Z,12
2022-11-28T00:12:40.777Z,14
2022-11-28T00:13:40.790Z,14
2022-11-28T00:14:40.791Z,13
2022-11-28T00:15:40.777Z,16
2022-11-28T00:16:40.778Z,15
2022-11-28T00:17:40.791Z,12
2022-11-28T00:18:40.791Z,15
2022-11-28T00:19:40.778Z,13
2022-11-28T00:20:40.791Z,13
2022-11-28T00:21:40.791Z,13
2022-11-28T00:22:40.791Z,15
2022-11-28T00:23:40.778Z,12
2022-11-28T00:24:40.791Z,12
2022-11-28T00:25:40.792Z,13
2022-11-28T00:26:40.792Z,13
2022-11-28T00:27:40.779Z,14
2022-11-28T00:28:40.792Z,11
2022-11-28T00:29:40.793Z,14
2022-11-28T00:30:40.779Z,14
2022-11-28T00:31:40.779Z,12
2022-11-28T00:32:40.792Z,12
2022-11-28T00:33:40.793Z,11
2022-11-28T00:34:40.780Z,12
2022-11-28T00:35:40.780Z,12
2022-11-28T00:36:40.793Z,14
2022-11-28T00:37:40.793Z,12
2022-11-28T00:38:40.780Z,12
2022-11-28T00:39:40.793Z,12
2022-11-28T00:40:40.793Z,11
2022-11-28T00:41:40.793Z,11
2022-11-28T00:42:40.780Z,11
2022-11-28T00:43:40.794Z,10
2022-11-28T00:44:40.794Z,10
2022-11-28T00:45:40.794Z,10
2022-11-28T00:46:40.781Z,8
2022-11-28T00:47:40.794Z,8
2022-11-28T00:48:40.795Z,9
2022-11-28T00:49:40.781Z,9
2022-11-28T00:50:40.781Z,8
2022-11-28T00:51:40.794Z,9
2022-11-28T00:53:40.782Z,9
2022-11-28T00:54:40.819Z,8
2022-11-28T00:55:40.795Z,10
2022-11-28T00:56:40.795Z,8
2022-11-28T00:57:40.782Z,8
2022-11-28T00:58:40.795Z,8
2022-11-28T00:59:40.795Z,9
2022-11-28T01:00:40.795Z,10
2022-11-28T01:01:40.782Z,11
2022-11-28T01:02:40.796Z,12
2022-11-28T01:03:40.796Z,13
2022-11-28T01:04:40.796Z,12
2022-11-28T01:05:40.783Z,11
2022-11-28T01:06:40.844Z,11
2022-11-28T01:07:40.797Z,11
2022-11-28T01:08:40.783Z,13
2022-11-28T01:09:40.783Z,11
2022-11-28T01:10:40.797Z,11
2022-11-28T01:11:40.797Z,11
2022-11-28T01:12:40.784Z,12
2022-11-28T01:13:40.797Z,9
2022-11-28T01:14:40.797Z,9
2022-11-28T01:15:40.797Z,11
2022-11-28T01:16:40.784Z,13
2022-11-28T01:17:40.797Z,14
2022-11-28T01:18:40.823Z,13
2022-11-28T01:19:40.797Z,13
2022-11-28T01:20:40.785Z,14
2022-11-28T01:21:40.798Z,15
2022-11-28T01:22:40.798Z,15
2022-11-28T01:23:40.798Z,15
2022-11-28T01:24:40.785Z,15
2022-11-28T01:25:40.798Z,16
2022-11-28T01:26:40.799Z,16
2022-11-28T01:27:40.785Z,15
2022-11-28T01:28:40.785Z,14
2022-11-28T01:29:40.799Z,17
2022-11-28T01:30:40.864Z,15
2022-11-28T01:31:40.786Z,14
2022-11-28T01:32:40.799Z,15
2022-11-28T01:33:40.799Z,14
2022-11-28T01:34:40.799Z,12
2022-11-28T01:35:40.786Z,11
2022-11-28T01:36:40.800Z,13
2022-11-28T01:37:40.800Z,14
2022-11-28T01:38:40.799Z,13
2022-11-28T01:39:40.787Z,11
2022-11-28T01:40:40.800Z,12
2022-11-28T01:41:40.800Z,12
2022-11-28T01:42:40.809Z,14
2022-11-28T01:43:40.787Z,14
2022-11-28T01:44:40.800Z,15
2022-11-28T01:45:40.801Z,15
2022-11-28T01:46:40.787Z,14
2022-11-28T01:47:40.787Z,15
2022-11-28T01:48:40.801Z,15
2022-11-28T01:49:40.801Z,14
2022-11-28T01:50:40.788Z,13
2022-11-28T01:51:40.801Z,14
2022-11-28T01:52:40.801Z,13
2022-11-28T01:53:40.801Z,13
2022-11-28T01:54:40.801Z,12
2022-11-28T01:55:40.802Z,14
2022-11-28T01:56:40.802Z,13
2022-11-28T01:57:40.802Z,12
2022-11-28T01:58:40.789Z,13
2022-11-28T01:59:40.802Z,12
2022-11-28T02:00:40.803Z,16
2022-11-28T02:01:40.789Z,13
2022-11-28T02:02:40.789Z,14
2022-11-28T02:03:40.802Z,14
2022-11-28T02:04:40.803Z,16
2022-11-28T02:05:40.790Z,17
2022-11-28T02:06:40.790Z,17
2022-11-28T02:07:40.803Z,15
2022-11-28T02:08:40.803Z,16
2022-11-28T02:09:40.790Z,15
2022-11-28T02:10:40.803Z,17
2022-11-28T02:11:40.803Z,15
2022-11-28T02:12:40.803Z,17
2022-11-28T02:13:40.791Z,17
2022-11-28T02:14:40.804Z,14
2022-11-28T02:15:40.804Z,13
2022-11-28T02:16:40.804Z,12
2022-11-28T02:17:40.791Z,13
2022-11-28T02:18:40.804Z,11
2022-11-28T02:19:40.805Z,11
2022-11-28T02:20:40.791Z,11
2022-11-28T02:21:40.791Z,10
2022-11-28T02:22:40.805Z,10
2022-11-28T02:23:40.805Z,9
2022-11-28T02:24:40.792Z,9
2022-11-28T02:25:40.792Z,9
2022-11-28T02:26:40.805Z,10
2022-11-28T02:27:40.805Z,10
2022-11-28T02:28:40.792Z,10
2022-11-28T02:29:40.805Z,8
2022-11-28T02:30:40.806Z,11
2022-11-28T02:31:40.806Z,10
2022-11-28T02:32:40.793Z,11
2022-11-28T02:33:40.806Z,11
2022-11-28T02:34:40.807Z,11
2022-11-28T02:35:40.806Z,11
2022-11-28T02:36:40.793Z,10
2022-11-28T02:37:40.806Z,11
2022-11-28T02:38:40.807Z,12
2022-11-28T02:39:40.794Z,12
2022-11-28T02:40:40.794Z,14
2022-11-28T02:41:40.807Z,14
2022-11-28T02:42:40.807Z,16
2022-11-28T02:43:40.794Z,13
2022-11-28T02:44:40.856Z,12
2022-11-28T02:45:40.807Z,12
2022-11-28T02:46:40.807Z,12
2022-11-28T02:47:40.794Z,11
2022-11-28T02:48:40.808Z,11
2022-11-28T02:49:40.808Z,9
2022-11-28T02:50:40.808Z,9
2022-11-28T02:51:40.795Z,8
2022-11-28T02:52:40.808Z,10
2022-11-28T02:53:40.809Z,9
2022-11-28T02:54:40.808Z,8
2022-11-28T02:55:40.795Z,7
2022-11-28T02:56:40.817Z,8
2022-11-28T02:57:40.809Z,8
2022-11-28T02:58:40.796Z,9
2022-11-28T02:59:40.796Z,5
2022-11-28T03:00:40.809Z,7
2022-11-28T03:01:40.810Z,7
2022-11-28T03:02:40.796Z,5
2022-11-28T03:03:40.809Z,7
2022-11-28T03:04:40.810Z,5
2022-11-28T03:05:40.810Z,5
2022-11-28T03:06:40.797Z,6
2022-11-28T03:07:40.810Z,7
2022-11-28T03:08:40.811Z,6
2022-11-28T03:09:40.810Z,6
2022-11-28T03:10:40.797Z,6
2022-11-28T03:11:40.810Z,6
2022-11-28T03:12:40.811Z,8
2022-11-28T03:13:40.811Z,8
2022-11-28T03:14:40.798Z,9
2022-11-28T03:15:40.811Z,9
2022-11-28T03:16:40.811Z,8
2022-11-28T03:17:40.798Z,11
2022-11-28T03:18:40.798Z,8
2022-11-28T03:19:40.811Z,10
2022-11-28T03:20:40.811Z,9
2022-11-28T03:21:40.798Z,10
2022-11-28T03:22:40.812Z,10
2022-11-28T03:23:40.812Z,13
2022-11-28T03:24:40.812Z,9
2022-11-28T03:25:40.799Z,10
2022-11-28T03:26:40.812Z,10
2022-11-28T03:27:40.813Z,9
2022-11-28T03:28:40.812Z,11
2022-11-28T03:29:40.799Z,10
2022-11-28T03:30:40.813Z,11
2022-11-28T03:31:40.813Z,8
2022-11-28T03:32:40.800Z,8
2022-11-28T03:33:40.800Z,9
2022-11-28T03:34:40.813Z,10
2022-11-28T03:35:40.814Z,11
2022-11-28T03:36:40.800Z,10
2022-11-28T03:37:40.800Z,10
2022-11-28T03:38:40.813Z,10
2022-11-28T03:39:40.813Z,9
2022-11-28T03:40:40.801Z,9
2022-11-28T03:41:40.814Z,9
2022-11-28T03:42:40.814Z,10
2022-11-28T03:43:40.814Z,9
2022-11-28T03:44:40.801Z,7
2022-11-28T03:45:40.814Z,7
2022-11-28T03:46:40.815Z,6
2022-11-28T03:47:40.814Z,5
2022-11-28T03:48:40.802Z,6
2022-11-28T03:49:40.815Z,6
2022-11-28T03:50:40.815Z,8
2022-11-28T03:51:40.802Z,5
2022-11-28T03:52:40.802Z,5
2022-11-28T03:53:40.815Z,5
2022-11-28T03:54:40.816Z,6
2022-11-28T03:55:40.802Z,7
2022-11-28T03:56:40.803Z,6
2022-11-28T03:57:40.816Z,7
2022-11-28T03:58:40.816Z,10
2022-11-28T03:59:40.803Z,11
2022-11-28T04:00:40.816Z,11
2022-11-28T04:01:40.816Z,10
2022-11-28T04:02:40.816Z,11
2022-11-28T04:03:40.803Z,10
2022-11-28T04:04:40.817Z,12
2022-11-28T04:05:40.817Z,11
2022-11-28T04:06:40.817Z,12
2022-11-28T04:07:40.804Z,14
2022-11-28T04:08:40.817Z,13
2022-11-28T04:09:40.818Z,12
2022-11-28T04:10:40.804Z,12
2022-11-28T04:11:40.804Z,10
2022-11-28T04:12:40.818Z,11
2022-11-28T04:13:40.818Z,15
2022-11-28T04:14:40.805Z,13
2022-11-28T04:15:40.866Z,11
2022-11-28T04:16:40.818Z,11
2022-11-28T04:17:40.818Z,15
2022-11-28T04:18:40.805Z,12
2022-11-28T04:19:40.818Z,12
2022-11-28T04:20:40.818Z,14
2022-11-28T04:21:40.818Z,15
2022-11-28T04:22:40.806Z,12
2022-11-28T04:23:40.819Z,13
2022-11-28T04:24:40.819Z,15
2022-11-28T04:25:40.819Z,13
2022-11-28T04:26:40.806Z,10
2022-11-28T04:27:40.828Z,12
2022-11-28T04:28:40.820Z,14
2022-11-28T04:29:40.806Z,11
2022-11-28T04:30:40.806Z,12
2022-11-28T04:31:40.820Z,10
2022-11-28T04:32:40.820Z,11
2022-11-28T04:33:40.807Z,12
2022-11-28T04:34:40.820Z,10
2022-11-28T04:35:40.820Z,9
2022-11-28T04:36:40.820Z,7
2022-11-28T04:37:40.807Z,7
2022-11-28T04:38:40.821Z,8
2022-11-28T04:39:40.871Z,9
2022-11-28T04:40:40.821Z,10
2022-11-28T04:41:40.808Z,14
2022-11-28T04:42:40.821Z,11
2022-11-28T04:43:40.822Z,11
2022-11-28T04:44:40.821Z,8
2022-11-28T04:45:40.808Z,8
2022-11-28T04:46:40.821Z,8
2022-11-28T04:47:40.822Z,8
2022-11-28T04:48:40.809Z,11
2022-11-28T04:49:40.809Z,10
2022-11-28T04:50:40.822Z,9
2022-11-28T04:51:40.822Z,9
2022-11-28T04:52:40.809Z,12
2022-11-28T04:53:40.822Z,9
2022-11-28T04:54:40.822Z,10
2022-11-28T04:55:40.822Z,9
2022-11-28T04:56:40.810Z,9
2022-11-28T04:57:40.823Z,11
2022-11-28T04:58:40.823Z,8
2022-11-28T04:59:40.823Z,6
2022-11-28T05:00:40.810Z,7
2022-11-28T05:01:40.823Z,8
2022-11-28T05:02:40.824Z,10
2022-11-28T05:03:40.810Z,12
2022-11-28T05:04:40.810Z,9
2022-11-28T05:05:40.824Z,13
2022-11-28T05:06:40.824Z,12
2022-11-28T05:07:40.811Z,12
2022-11-28T05:08:40.811Z,13
2022-11-28T05:09:40.824Z,9
2022-11-28T05:10:40.824Z,8
2022-11-28T05:11:40.811Z,10
2022-11-28T05:12:40.825Z,11
2022-11-28T05:13:40.825Z,8
2022-11-28T05:14:40.825Z,10
2022-11-28T05:15:40.812Z,9
2022-11-28T05:16:40.825Z,10
2022-11-28T05:17:40.825Z,10
2022-11-28T05:18:40.825Z,10
2022-11-28T05:19:40.812Z,9
2022-11-28T05:20:40.826Z,9
2022-11-28T05:21:40.826Z,11
2022-11-28T05:22:40.826Z,12
2022-11-28T05:23:40.813Z,12
2022-11-28T05:24:40.850Z,18
2022-11-28T05:25:40.827Z,15
2022-11-28T05:26:40.813Z,15
2022-11-28T05:27:40.813Z,17
2022-11-28T05:28:40.826Z,17
2022-11-28T05:29:40.827Z,17
2022-11-28T05:30:40.814Z,14
2022-11-28T05:31:40.827Z,14
2022-11-28T05:32:40.827Z,12
2022-11-28T05:33:40.827Z,12
2022-11-28T05:34:40.814Z,12
2022-11-28T05:35:40.827Z,10
2022-11-28T05:36:40.894Z,9
2022-11-28T05:37:40.827Z,13
2022-11-28T05:38:40.815Z,12
2022-11-28T05:39:40.828Z,12
2022-11-28T05:40:40.828Z,12
2022-11-28T05:41:40.828Z,19
2022-11-28T05:42:40.815Z,12
2022-11-28T05:43:40.828Z,14
2022-11-28T05:44:40.829Z,12
2022-11-28T05:45:40.815Z,13
2022-11-28T05:46:40.815Z,12
2022-11-28T05:47:40.829Z,14
2022-11-28T05:48:40.830Z,11
2022-11-28T05:49:40.816Z,11
2022-11-28T05:50:40.829Z,12
2022-11-28T05:51:40.829Z,11
2022-11-28T05:52:40.829Z,18
2022-11-28T05:53:40.816Z,13
2022-11-28T05:54:40.829Z,15
2022-11-28T05:55:40.830Z,14
2022-11-28T05:56:40.830Z,14
2022-11-28T05:57:40.817Z,14
2022-11-28T05:58:40.830Z,10
2022-11-28T05:59:40.830Z,10
2022-11-28T06:00:40.817Z,13
2022-11-28T06:01:40.817Z,18
2022-11-28T06:02:40.830Z,14
2022-11-28T06:03:40.831Z,9
2022-11-28T06:04:40.818Z,12
2022-11-28T06:05:40.818Z,13
2022-11-28T06:06:40.831Z,11
2022-11-28T06:07:40.831Z,17
2022-11-28T06:08:40.818Z,13
2022-11-28T06:09:40.831Z,16
2022-11-28T06:10:40.831Z,18
2022-11-28T06:12:40.819Z,19
2022-11-28T06:13:40.832Z,28
2022-11-28T06:14:40.858Z,23
2022-11-28T06:15:40.832Z,26
2022-11-28T06:16:40.819Z,25
2022-11-28T06:17:40.832Z,17
2022-11-28T06:18:40.833Z,20
2022-11-28T06:19:40.832Z,19
2022-11-28T06:20:40.819Z,27
2022-11-28T06:21:40.833Z,24
2022-11-28T06:22:40.833Z,36
2022-11-28T06:23:40.820Z,34
2022-11-28T06:24:40.820Z,28
2022-11-28T06:25:40.833Z,31
2022-11-28T06:26:40.834Z,28
2022-11-28T06:27:40.820Z,25
2022-11-28T06:28:40.833Z,27
2022-11-28T06:29:40.834Z,17
2022-11-28T06:30:40.834Z,28
2022-11-28T06:31:40.821Z,29
2022-11-28T06:32:40.834Z,30
2022-11-28T06:33:40.835Z,28
2022-11-28T06:34:40.834Z,28
2022-11-28T06:35:40.821Z,35
2022-11-28T06:36:40.835Z,28
2022-11-28T06:37:40.835Z,21
2022-11-28T06:38:40.835Z,25
2022-11-28T06:39:40.822Z,23
2022-11-28T06:40:40.835Z,19
2022-11-28T06:41:40.836Z,20
2022-11-28T06:42:40.822Z,19
2022-11-28T06:43:40.822Z,24
2022-11-28T06:44:40.835Z,24
2022-11-28T06:45:40.836Z,26
2022-11-28T06:46:40.823Z,24
2022-11-28T06:47:40.836Z,15
2022-11-28T06:48:40.836Z,17
2022-11-28T06:49:40.836Z,17
2022-11-28T06:50:40.823Z,19
2022-11-28T06:51:40.836Z,21
2022-11-28T06:52:40.837Z,22
2022-11-28T06:53:40.837Z,24
2022-11-28T06:54:40.824Z,25
2022-11-28T06:55:40.837Z,26
2022-11-28T06:56:40.837Z,29
2022-11-28T06:57:40.848Z,34
2022-11-28T06:58:40.824Z,33
2022-11-28T06:59:40.838Z,36
2022-11-28T07:00:40.838Z,35
2022-11-28T07:01:40.824Z,22
2022-11-28T07:02:40.825Z,26
2022-11-28T07:03:40.838Z,21
2022-11-28T07:04:40.838Z,21
2022-11-28T07:05:40.825Z,25
2022-11-28T07:06:40.838Z,22
2022-11-28T07:07:40.838Z,18
2022-11-28T07:08:40.838Z,24
2022-11-28T07:09:40.825Z,25
2022-11-28T07:10:40.839Z,31
2022-11-28T07:11:40.840Z,26
2022-11-28T07:12:40.839Z,27
2022-11-28T07:13:40.826Z,29
2022-11-28T07:14:40.839Z,38
2022-11-28T07:15:40.840Z,28
2022-11-28T07:16:40.839Z,25
2022-11-28T07:17:40.827Z,26
2022-11-28T07:18:40.840Z,23
2022-11-28T07:19:40.840Z,22
2022-11-28T07:20:40.827Z,25
2022-11-28T07:21:40.827Z,24
2022-11-28T07:22:40.840Z,17
2022-11-28T07:23:40.841Z,23
2022-11-28T07:24:40.827Z,19
2022-11-28T07:25:40.841Z,15
2022-11-28T07:26:40.841Z,24
2022-11-28T07:27:40.841Z,28
2022-11-28T07:28:40.828Z,28
2022-11-28T07:29:40.841Z,28
2022-11-28T07:30:40.842Z,30
2022-11-28T07:31:40.841Z,27
2022-11-28T07:32:40.828Z,27
2022-11-28T07:33:40.842Z,23
2022-11-28T07:34:40.842Z,26
2022-11-28T07:35:40.842Z,31
2022-11-28T07:36:40.829Z,27
2022-11-28T07:37:40.842Z,25
2022-11-28T07:38:40.843Z,30
2022-11-28T07:39:40.829Z,30
2022-11-28T07:40:40.829Z,26
2022-11-28T07:41:40.843Z,30
2022-11-28T07:42:40.843Z,33
2022-11-28T07:43:40.830Z,31
2022-11-28T07:44:40.843Z,32
2022-11-28T07:45:40.843Z,37
2022-11-28T07:46:40.843Z,32
2022-11-28T07:47:40.843Z,36
2022-11-28T07:48:40.844Z,43
2022-11-28T07:49:40.844Z,41
2022-11-28T07:50:40.844Z,36
2022-11-28T07:51:40.831Z,34
2022-11-28T07:52:40.844Z,32
2022-11-28T07:53:40.845Z,39
2022-11-28T07:54:40.831Z,39
2022-11-28T07:55:40.831Z,38
2022-11-28T07:56:40.845Z,39
2022-11-28T07:57:40.845Z,48
2022-11-28T07:58:40.832Z,46
2022-11-28T07:59:40.832Z,42
2022-11-28T08:00:40.845Z,42
2022-11-28T08:01:40.845Z,40
2022-11-28T08:02:40.832Z,36
2022-11-28T08:03:40.846Z,39
2022-11-28T08:04:40.846Z,44
2022-11-28T08:05:40.846Z,45
2022-11-28T08:06:40.833Z,40
2022-11-28T08:07:40.846Z,47
2022-11-28T08:08:40.847Z,42
2022-11-28T08:09:40.846Z,39
2022-11-28T08:10:40.833Z,39
2022-11-28T08:11:40.847Z,35
2022-11-28T08:12:40.847Z,41
2022-11-28T08:13:40.834Z,43
2022-11-28T08:14:40.834Z,50
2022-11-28T08:15:40.847Z,42
2022-11-28T08:16:40.848Z,36
2022-11-28T08:17:40.834Z,29
2022-11-28T08:18:40.835Z,37
2022-11-28T08:19:40.848Z,29
2022-11-28T08:20:40.848Z,30
2022-11-28T08:21:40.835Z,31
2022-11-28T08:22:40.848Z,32
2022-11-28T08:23:40.848Z,29
2022-11-28T08:24:40.848Z,38
2022-11-28T08:25:40.836Z,32
2022-11-28T08:26:40.849Z,37
2022-11-28T08:27:40.849Z,34
2022-11-28T08:28:40.849Z,34
2022-11-28T08:29:40.836Z,42
2022-11-28T08:30:40.849Z,39
2022-11-28T08:31:40.850Z,40
2022-11-28T08:32:40.849Z,41
2022-11-28T08:33:40.837Z,43
2022-11-28T08:34:40.850Z,44
2022-11-28T08:35:40.851Z,48
2022-11-28T08:36:40.837Z,48
2022-11-28T08:37:40.837Z,47
2022-11-28T08:38:40.851Z,40
2022-11-28T08:39:40.851Z,40
2022-11-28T08:40:40.838Z,36
2022-11-28T08:41:40.851Z,41
2022-11-28T08:42:40.851Z,41
2022-11-28T08:43:40.851Z,53
2022-11-28T08:44:40.838Z,51
2022-11-28T08:45:40.852Z,45
2022-11-28T08:46:40.852Z,44
2022-11-28T08:48:40.839Z,50
2022-11-28T08:49:40.852Z,50
2022-11-28T08:50:40.853Z,47
2022-11-28T08:51:40.839Z,47
2022-11-28T08:52:40.840Z,54
2022-11-28T08:53:40.853Z,52
2022-11-28T08:54:40.853Z,52
2022-11-28T08:55:40.840Z,43
2022-11-28T08:56:40.840Z,44
2022-11-28T08:57:40.853Z,39
2022-11-28T08:58:40.853Z,41
2022-11-28T08:59:40.841Z,49
2022-11-28T09:00:40.854Z,45
2022-11-28T09:01:40.854Z,45
2022-11-28T09:02:40.854Z,43
2022-11-28T09:03:40.841Z,37
2022-11-28T09:04:40.854Z,34
2022-11-28T09:05:40.855Z,35
2022-11-28T09:06:40.855Z,38
2022-11-28T09:07:40.842Z,42
2022-11-28T09:08:40.855Z,37
2022-11-28T09:09:40.856Z,30
2022-11-28T09:10:40.842Z,33
2022-11-28T09:11:40.843Z,40
2022-11-28T09:12:40.856Z,39
2022-11-28T09:13:40.857Z,36
2022-11-28T09:14:40.843Z,37
2022-11-28T09:15:40.843Z,49
2022-11-28T09:16:40.856Z,48
2022-11-28T09:17:40.856Z,42
2022-11-28T09:18:40.844Z,48
2022-11-28T09:19:40.857Z,50
2022-11-28T09:20:40.857Z,56
2022-11-28T09:21:40.857Z,54
2022-11-28T09:22:40.857Z,46
2022-11-28T09:23:40.858Z,48
2022-11-28T09:24:40.858Z,50
2022-11-28T09:25:40.858Z,49
2022-11-28T09:26:40.845Z,57
2022-11-28T09:27:40.858Z,50
2022-11-28T09:28:40.859Z,57
2022-11-28T09:29:40.845Z,61
2022-11-28T09:30:40.846Z,60
2022-11-28T09:31:40.859Z,67
2022-11-28T09:32:40.860Z,54
2022-11-28T09:33:40.846Z,59
2022-11-28T09:34:40.846Z,54
2022-11-28T09:35:40.860Z,53
2022-11-28T09:36:40.860Z,57
2022-11-28T09:37:40.847Z,54
2022-11-28T09:38:40.860Z,57
2022-11-28T09:39:40.860Z,55
2022-11-28T09:40:40.860Z,49
2022-11-28T09:41:40.848Z,53
2022-11-28T09:42:40.861Z,59
2022-11-28T09:43:40.862Z,61
2022-11-28T09:44:40.861Z,61
2022-11-28T09:45:40.848Z,61
2022-11-28T09:46:40.927Z,60
2022-11-28T09:47:40.862Z,62
2022-11-28T09:48:40.849Z,51
2022-11-28T09:49:40.849Z,41
2022-11-28T09:50:40.862Z,44
2022-11-28T09:51:40.863Z,47
2022-11-28T09:52:40.850Z,54
2022-11-28T09:53:40.863Z,50
2022-11-28T09:54:40.863Z,53
2022-11-28T09:55:40.863Z,49
2022-11-28T09:56:40.850Z,48
2022-11-28T09:57:40.864Z,50
2022-11-28T09:58:40.864Z,48
2022-11-28T09:59:40.864Z,52
2022-11-28T10:00:40.851Z,68
2022-11-28T10:01:40.864Z,55
2022-11-28T10:02:40.865Z,50
2022-11-28T10:03:40.864Z,55
2022-11-28T10:04:40.852Z,56
2022-11-28T10:05:40.865Z,52
2022-11-28T10:06:40.866Z,48
2022-11-28T10:07:40.852Z,58
2022-11-28T10:08:40.852Z,65
2022-11-28T10:09:40.866Z,55
2022-11-28T10:10:40.866Z,58
2022-11-28T10:11:40.853Z,62
2022-11-28T10:12:40.866Z,52
2022-11-28T10:13:46.605Z,53
2022-11-28T10:14:40.932Z,69
2022-11-28T10:15:40.854Z,70
2022-11-28T10:16:40.867Z,65
2022-11-28T10:17:40.867Z,66
2022-11-28T10:18:40.867Z,66
2022-11-28T10:19:40.855Z,61
2022-11-28T10:20:40.868Z,58
2022-11-28T10:21:40.869Z,48
2022-11-28T10:22:40.868Z,67
2022-11-28T10:23:40.855Z,60
2022-11-28T10:24:40.869Z,48
2022-11-28T10:25:40.869Z,47
2022-11-28T10:26:40.856Z,42
2022-11-28T10:27:40.856Z,38
2022-11-28T10:28:40.869Z,43
2022-11-28T10:29:40.870Z,40
2022-11-28T10:30:40.857Z,46
2022-11-28T10:31:40.857Z,40
2022-11-28T10:32:40.870Z,37
2022-11-28T10:33:40.870Z,35
2022-11-28T10:34:40.857Z,44
2022-11-28T10:35:40.871Z,50
2022-11-28T10:36:40.871Z,54
2022-11-28T10:37:40.871Z,57
2022-11-28T10:38:40.858Z,54
2022-11-28T10:39:40.871Z,51
2022-11-28T10:40:40.872Z,53
2022-11-28T10:41:40.872Z,54
2022-11-28T10:42:40.859Z,52
2022-11-28T10:43:40.872Z,46
2022-11-28T10:44:40.873Z,49
2022-11-28T10:45:40.859Z,58
2022-11-28T10:46:40.860Z,48
2022-11-28T10:47:40.873Z,54
2022-11-28T10:48:40.874Z,49
2022-11-28T10:49:40.860Z,49
2022-11-28T10:50:40.860Z,54
2022-11-28T10:51:40.874Z,58
2022-11-28T10:52:40.874Z,50
2022-11-28T10:53:40.861Z,59
2022-11-28T10:54:40.874Z,56
2022-11-28T10:55:40.874Z,46
2022-11-28T10:56:40.874Z,50
2022-11-28T10:57:40.862Z,53
2022-11-28T10:58:40.875Z,58
2022-11-28T10:59:40.876Z,60
2022-11-28T11:00:40.875Z,59
2022-11-28T11:01:40.862Z,52
2022-11-28T11:02:40.876Z,61
2022-11-28T11:03:40.877Z,69
2022-11-28T11:04:40.863Z,61
2022-11-28T11:05:40.863Z,48
2022-11-28T11:06:40.876Z,47
2022-11-28T11:07:40.877Z,48
2022-11-28T11:08:40.864Z,49
2022-11-28T11:09:40.926Z,60
2022-11-28T11:10:40.877Z,81
2022-11-28T11:11:40.877Z,68
2022-11-28T11:12:40.865Z,70
2022-11-28T11:13:44.369Z,64
2022-11-28T11:14:40.878Z,60
2022-11-28T11:15:40.878Z,62
2022-11-28T11:16:40.865Z,54
2022-11-28T11:17:40.879Z,43
2022-11-28T11:18:40.879Z,41
2022-11-28T11:19:40.879Z,47
2022-11-28T11:20:40.866Z,59
2022-11-28T11:21:40.879Z,52
2022-11-28T11:22:40.880Z,47
2022-11-28T11:23:40.881Z,47
2022-11-28T11:24:40.867Z,50
2022-11-28T11:25:40.880Z,46
2022-11-28T11:26:40.881Z,50
2022-11-28T11:27:40.868Z,56
2022-11-28T11:28:40.868Z,46
2022-11-28T11:29:40.881Z,51
2022-11-28T11:30:40.881Z,52
2022-11-28T11:31:40.868Z,52
2022-11-28T11:32:40.882Z,52
2022-11-28T11:33:40.882Z,53
2022-11-28T11:34:40.882Z,52
2022-11-28T11:35:40.869Z,47
2022-11-28T11:36:40.882Z,52
2022-11-28T11:37:40.883Z,65
2022-11-28T11:38:40.883Z,57
2022-11-28T11:39:40.870Z,49
2022-11-28T11:40:40.883Z,53
2022-11-28T11:41:40.884Z,55
2022-11-28T11:42:40.871Z,60
2022-11-28T11:43:40.871Z,61
2022-11-28T11:44:40.884Z,71
2022-11-28T11:45:40.885Z,75
2022-11-28T11:46:40.871Z,70
2022-11-28T11:47:40.872Z,74
2022-11-28T11:48:40.885Z,70
2022-11-28T11:49:40.950Z,72
2022-11-28T11:50:40.872Z,72
2022-11-28T11:51:40.885Z,67
2022-11-28T11:52:40.886Z,58
2022-11-28T11:53:40.886Z,61
2022-11-28T11:54:40.873Z,58
2022-11-28T11:55:40.886Z,53
2022-11-28T11:56:40.887Z,50
2022-11-28T11:57:40.886Z,56
2022-11-28T11:58:40.874Z,62
2022-11-28T11:59:40.887Z,70
2022-11-28T12:00:40.888Z,82
2022-11-28T12:01:40.888Z,88
2022-11-28T12:02:40.875Z,91
2022-11-28T12:03:40.888Z,72
2022-11-28T12:04:40.889Z,55
2022-11-28T12:05:40.875Z,68
2022-11-28T12:06:40.875Z,81
2022-11-28T12:07:40.889Z,74
2022-11-28T12:08:40.889Z,80
2022-11-28T12:09:40.876Z,76
2022-11-28T12:10:40.889Z,83
2022-11-28T12:11:40.889Z,81
2022-11-28T12:12:40.890Z,72
2022-11-28T12:13:40.877Z,78
2022-11-28T12:14:40.890Z,70
2022-11-28T12:15:40.891Z,81
2022-11-28T12:16:40.891Z,66
2022-11-28T12:17:40.878Z,62
2022-11-28T12:18:40.891Z,52
2022-11-28T12:19:40.892Z,48
2022-11-28T12:20:40.891Z,52
2022-11-28T12:21:40.878Z,55
2022-11-28T12:22:40.891Z,45
2022-11-28T12:23:40.892Z,46
2022-11-28T12:24:40.879Z,47
2022-11-28T12:25:40.879Z,41
2022-11-28T12:26:40.892Z,38
2022-11-28T12:27:40.893Z,44
2022-11-28T12:28:40.880Z,42
2022-11-28T12:29:40.893Z,45
2022-11-28T12:30:40.893Z,49
2022-11-28T12:31:40.893Z,52
2022-11-28T12:32:40.880Z,47
2022-11-28T12:33:40.894Z,34
2022-11-28T12:34:40.894Z,43
2022-11-28T12:35:40.894Z,47
2022-11-28T12:36:40.894Z,47
2022-11-28T12:37:40.895Z,48
2022-11-28T12:38:40.896Z,49
2022-11-28T12:39:40.895Z,46
2022-11-28T12:40:40.882Z,43
2022-11-28T12:41:40.895Z,36
2022-11-28T12:42:40.896Z,49
2022-11-28T12:43:40.883Z,48
2022-11-28T12:44:40.883Z,46
2022-11-28T12:45:40.896Z,45
2022-11-28T12:46:40.897Z,44
2022-11-28T12:47:40.884Z,45
2022-11-28T12:48:40.884Z,49
2022-11-28T12:49:40.897Z,48
2022-11-28T12:50:40.897Z,46
2022-11-28T12:51:40.884Z,34
2022-11-28T12:52:40.898Z,42
2022-11-28T12:53:40.898Z,53
2022-11-28T12:54:40.898Z,40
2022-11-28T12:55:40.885Z,49
2022-11-28T12:56:40.898Z,45
2022-11-28T12:57:40.899Z,41
2022-11-28T12:58:40.899Z,47
2022-11-28T12:59:40.886Z,48
2022-11-28T13:00:40.899Z,58
2022-11-28T13:01:40.900Z,52
2022-11-28T13:02:40.886Z,42
2022-11-28T13:03:40.887Z,37
2022-11-28T13:04:40.900Z,39
2022-11-28T13:05:40.901Z,39
2022-11-28T13:06:40.887Z,43
2022-11-28T13:07:40.942Z,45
2022-11-28T13:08:40.901Z,44
2022-11-28T13:09:40.901Z,41
2022-11-28T13:10:40.888Z,43
2022-11-28T13:11:40.901Z,44
2022-11-28T13:12:40.902Z,51
2022-11-28T13:13:40.902Z,47
2022-11-28T13:14:40.889Z,44
2022-11-28T13:15:40.902Z,37
2022-11-28T13:16:40.903Z,40
2022-11-28T13:17:40.902Z,34
2022-11-28T13:18:40.890Z,38
2022-11-28T13:19:40.943Z,37
2022-11-28T13:20:40.904Z,34
2022-11-28T13:21:40.890Z,42
2022-11-28T13:22:40.890Z,54
2022-11-28T13:23:40.904Z,50
2022-11-28T13:24:40.904Z,46
2022-11-28T13:25:40.891Z,44
2022-11-28T13:26:40.904Z,38
2022-11-28T13:27:40.905Z,42
2022-11-28T13:28:40.904Z,41
2022-11-28T13:29:40.892Z,50
2022-11-28T13:30:40.905Z,47
2022-11-28T13:31:40.905Z,46
2022-11-28T13:32:40.905Z,47
2022-11-28T13:33:40.893Z,49
2022-11-28T13:34:40.906Z,53
2022-11-28T13:35:40.907Z,38
2022-11-28T13:36:40.906Z,47
2022-11-28T13:37:40.893Z,44
2022-11-28T13:38:40.907Z,49
2022-11-28T13:39:40.907Z,50
2022-11-28T13:40:40.894Z,45
2022-11-28T13:41:40.894Z,50
2022-11-28T13:42:40.908Z,49
2022-11-28T13:43:40.908Z,58
2022-11-28T13:44:40.895Z,50
2022-11-28T13:45:40.895Z,50
2022-11-28T13:46:40.908Z,50
2022-11-28T13:47:40.909Z,46
2022-11-28T13:48:40.896Z,46
2022-11-28T13:49:40.909Z,45
2022-11-28T13:50:40.909Z,41
2022-11-28T13:51:40.909Z,47
2022-11-28T13:52:40.896Z,55
2022-11-28T13:54:40.910Z,49
2022-11-28T13:55:40.910Z,62
2022-11-28T13:56:40.897Z,55
2022-11-28T13:57:40.910Z,51
2022-11-28T13:58:40.911Z,51
2022-11-28T13:59:40.911Z,57
2022-11-28T14:00:40.898Z,56
2022-11-28T14:01:40.911Z,49
2022-11-28T14:02:40.912Z,47
2022-11-28T14:03:40.899Z,48
2022-11-28T14:04:40.899Z,58
2022-11-28T14:05:40.912Z,52
2022-11-28T14:06:40.912Z,46
2022-11-28T14:07:40.899Z,50
2022-11-28T14:08:40.913Z,49
2022-11-28T14:09:40.913Z,38
2022-11-28T14:10:40.913Z,48
2022-11-28T14:11:40.900Z,56
2022-11-28T14:12:40.913Z,56
2022-11-28T14:13:40.914Z,57
2022-11-28T14:14:40.914Z,51
2022-11-28T14:15:40.901Z,65
2022-11-28T14:16:40.914Z,60
2022-11-28T14:17:40.915Z,45
2022-11-28T14:18:40.902Z,45
2022-11-28T14:19:40.902Z,58
2022-11-28T14:20:40.915Z,63
2022-11-28T14:21:40.916Z,66
2022-11-28T14:22:40.902Z,62
2022-11-28T14:23:40.982Z,51